sensor_id;sensor_type;location;lat;lon;timestamp;P1;durP1;ratioP1;P2;durP2;ratioP2
20792;SDS011;10556;-33.662;151.094;2023-03-17T00:03:15;0.75;;;0.57;;
20792;SDS011;10556;-33.662;151.094;2023-03-17T00:08:19;0.88;;;0.60;;
20792;SDS011;10556;-33.662;151.094;2023-03-17T00:13:21;0.65;;;0.50;;
20792;SDS011;10556;-33.662;151.094;2023-03-17T00:18:24;1.45;;;0.40;;
20792;SDS011;10556;-33.662;151.094;2023-03-17T00:23:25;1.30;;;0.50;;
20792;SDS011;10556;-33.662;151.094;2023-03-17T00:28:27;1.80;;;0.60;;
20792;SDS011;10556;-33.662;151.094;2023-03-17T00:33:30;0.85;;;0.50;;
20792;SDS011;10556;-33.662;151.094;2023-03-17T00:38:33;1.05;;;0.43;;
20792;SDS011;10556;-33.662;151.094;2023-03-17T00:43:34;1.20;;;0.50;;
20792;SDS011;10556;-33.662;151.094;2023-03-17T00:48:38;1.00;;;0.40;;
20792;SDS011;10556;-33.662;151.094;2023-03-17T00:53:39;1.60;;;0.70;;
20792;SDS011;10556;-33.662;151.094;2023-03-17T00:58:40;1.63;;;0.47;;
20792;SDS011;10556;-33.662;151.094;2023-03-17T01:03:43;4.15;;;0.93;;
20792;SDS011;10556;-33.662;151.094;2023-03-17T01:08:45;1.85;;;0.50;;
20792;SDS011;10556;-33.662;151.094;2023-03-17T01:13:46;0.50;;;0.40;;
20792;SDS011;10556;-33.662;151.094;2023-03-17T01:18:49;1.88;;;0.50;;
20792;SDS011;10556;-33.662;151.094;2023-03-17T01:23:50;1.88;;;0.38;;
20792;SDS011;10556;-33.662;151.094;2023-03-17T01:28:51;1.67;;;0.50;;
20792;SDS011;10556;-33.662;151.094;2023-03-17T01:33:54;1.27;;;0.50;;
20792;SDS011;10556;-33.662;151.094;2023-03-17T01:38:56;0.70;;;0.50;;
20792;SDS011;10556;-33.662;151.094;2023-03-17T01:43:57;1.65;;;0.50;;
20792;SDS011;10556;-33.662;151.094;2023-03-17T01:49:04;2.05;;;0.50;;
20792;SDS011;10556;-33.662;151.094;2023-03-17T01:54:07;0.80;;;0.40;;
20792;SDS011;10556;-33.662;151.094;2023-03-17T01:59:09;1.20;;;0.50;;
20792;SDS011;10556;-33.662;151.094;2023-03-17T02:04:13;1.08;;;0.45;;
20792;SDS011;10556;-33.662;151.094;2023-03-17T02:09:14;1.77;;;0.63;;
20792;SDS011;10556;-33.662;151.094;2023-03-17T02:14:16;0.75;;;0.40;;
20792;SDS011;10556;-33.662;151.094;2023-03-17T02:19:19;1.15;;;0.40;;
20792;SDS011;10556;-33.662;151.094;2023-03-17T02:24:23;1.48;;;0.47;;
20792;SDS011;10556;-33.662;151.094;2023-03-17T02:29:25;1.00;;;0.68;;
20792;SDS011;10556;-33.662;151.094;2023-03-17T02:34:27;1.27;;;0.50;;
20792;SDS011;10556;-33.662;151.094;2023-03-17T02:39:30;1.17;;;0.68;;
20792;SDS011;10556;-33.662;151.094;2023-03-17T02:44:31;4.05;;;0.77;;
20792;SDS011;10556;-33.662;151.094;2023-03-17T02:49:33;1.52;;;0.73;;
20792;SDS011;10556;-33.662;151.094;2023-03-17T02:54:36;1.42;;;0.82;;
20792;SDS011;10556;-33.662;151.094;2023-03-17T02:59:37;4.57;;;2.00;;
20792;SDS011;10556;-33.662;151.094;2023-03-17T03:04:39;2.95;;;1.38;;
20792;SDS011;10556;-33.662;151.094;2023-03-17T03:09:42;1.40;;;0.90;;
20792;SDS011;10556;-33.662;151.094;2023-03-17T03:14:43;2.58;;;0.98;;
20792;SDS011;10556;-33.662;151.094;2023-03-17T03:19:44;3.00;;;1.00;;
20792;SDS011;10556;-33.662;151.094;2023-03-17T03:24:47;1.42;;;0.70;;
20792;SDS011;10556;-33.662;151.094;2023-03-17T03:29:49;3.05;;;0.85;;
20792;SDS011;10556;-33.662;151.094;2023-03-17T03:34:50;3.67;;;0.93;;
20792;SDS011;10556;-33.662;151.094;2023-03-17T03:39:53;3.60;;;1.00;;
20792;SDS011;10556;-33.662;151.094;2023-03-17T03:44:54;3.38;;;0.98;;
20792;SDS011;10556;-33.662;151.094;2023-03-17T03:49:55;1.88;;;0.88;;
20792;SDS011;10556;-33.662;151.094;2023-03-17T03:54:59;7.43;;;1.05;;
20792;SDS011;10556;-33.662;151.094;2023-03-17T04:00:00;1.83;;;0.70;;
20792;SDS011;10556;-33.662;151.094;2023-03-17T04:05:01;4.07;;;0.90;;
20792;SDS011;10556;-33.662;151.094;2023-03-17T04:10:05;6.63;;;1.90;;
20792;SDS011;10556;-33.662;151.094;2023-03-17T04:15:07;2.08;;;1.02;;
20792;SDS011;10556;-33.662;151.094;2023-03-17T04:20:09;5.63;;;1.58;;
20792;SDS011;10556;-33.662;151.094;2023-03-17T04:25:12;6.25;;;1.40;;
20792;SDS011;10556;-33.662;151.094;2023-03-17T04:30:14;3.72;;;1.10;;
20792;SDS011;10556;-33.662;151.094;2023-03-17T04:35:16;2.72;;;1.30;;
20792;SDS011;10556;-33.662;151.094;2023-03-17T04:40:19;4.95;;;1.20;;
20792;SDS011;10556;-33.662;151.094;2023-03-17T04:45:20;4.60;;;1.27;;
20792;SDS011;10556;-33.662;151.094;2023-03-17T04:50:21;5.60;;;1.55;;
20792;SDS011;10556;-33.662;151.094;2023-03-17T04:55:25;2.65;;;1.10;;
20792;SDS011;10556;-33.662;151.094;2023-03-17T05:00:26;3.28;;;1.08;;
20792;SDS011;10556;-33.662;151.094;2023-03-17T05:05:27;5.07;;;1.27;;
20792;SDS011;10556;-33.662;151.094;2023-03-17T05:10:30;3.80;;;1.27;;
20792;SDS011;10556;-33.662;151.094;2023-03-17T05:15:31;3.78;;;1.10;;
20792;SDS011;10556;-33.662;151.094;2023-03-17T05:20:33;2.97;;;1.10;;
20792;SDS011;10556;-33.662;151.094;2023-03-17T05:25:36;3.60;;;0.95;;
20792;SDS011;10556;-33.662;151.094;2023-03-17T05:30:37;3.63;;;0.80;;
20792;SDS011;10556;-33.662;151.094;2023-03-17T05:35:38;6.45;;;1.20;;
20792;SDS011;10556;-33.662;151.094;2023-03-17T05:40:41;3.78;;;0.90;;
20792;SDS011;10556;-33.662;151.094;2023-03-17T05:45:43;9.70;;;1.35;;
20792;SDS011;10556;-33.662;151.094;2023-03-17T05:50:44;5.47;;;0.93;;
20792;SDS011;10556;-33.662;151.094;2023-03-17T05:55:47;4.38;;;0.98;;
20792;SDS011;10556;-33.662;151.094;2023-03-17T06:00:48;4.78;;;0.95;;
20792;SDS011;10556;-33.662;151.094;2023-03-17T06:05:50;6.20;;;1.13;;
20792;SDS011;10556;-33.662;151.094;2023-03-17T06:10:53;4.50;;;1.20;;
20792;SDS011;10556;-33.662;151.094;2023-03-17T06:15:54;5.80;;;1.20;;
20792;SDS011;10556;-33.662;151.094;2023-03-17T06:20:55;3.08;;;0.77;;
20792;SDS011;10556;-33.662;151.094;2023-03-17T06:25:58;4.70;;;1.25;;
20792;SDS011;10556;-33.662;151.094;2023-03-17T06:30:59;3.33;;;0.70;;
20792;SDS011;10556;-33.662;151.094;2023-03-17T06:36:01;4.00;;;0.80;;
20792;SDS011;10556;-33.662;151.094;2023-03-17T06:41:04;5.22;;;0.98;;
20792;SDS011;10556;-33.662;151.094;2023-03-17T06:46:05;5.95;;;1.20;;
20792;SDS011;10556;-33.662;151.094;2023-03-17T06:51:06;2.30;;;0.90;;
20792;SDS011;10556;-33.662;151.094;2023-03-17T06:56:09;1.52;;;0.55;;
20792;SDS011;10556;-33.662;151.094;2023-03-17T07:01:11;3.20;;;0.90;;
20792;SDS011;10556;-33.662;151.094;2023-03-17T07:06:12;5.72;;;1.23;;
20792;SDS011;10556;-33.662;151.094;2023-03-17T07:11:15;3.85;;;1.10;;
20792;SDS011;10556;-33.662;151.094;2023-03-17T07:16:16;3.33;;;0.80;;
20792;SDS011;10556;-33.662;151.094;2023-03-17T07:21:18;2.70;;;0.77;;
20792;SDS011;10556;-33.662;151.094;2023-03-17T07:26:21;3.15;;;0.93;;
20792;SDS011;10556;-33.662;151.094;2023-03-17T07:31:23;1.67;;;0.50;;
20792;SDS011;10556;-33.662;151.094;2023-03-17T07:36:24;0.93;;;0.70;;
20792;SDS011;10556;-33.662;151.094;2023-03-17T07:41:27;3.05;;;0.82;;
20792;SDS011;10556;-33.662;151.094;2023-03-17T07:46:29;1.13;;;0.70;;
20792;SDS011;10556;-33.662;151.094;2023-03-17T07:51:30;2.77;;;0.90;;
20792;SDS011;10556;-33.662;151.094;2023-03-17T07:56:33;4.43;;;1.10;;
20792;SDS011;10556;-33.662;151.094;2023-03-17T08:01:34;2.70;;;0.80;;
20792;SDS011;10556;-33.662;151.094;2023-03-17T08:06:36;2.90;;;0.70;;
20792;SDS011;10556;-33.662;151.094;2023-03-17T08:11:39;3.00;;;0.90;;
20792;SDS011;10556;-33.662;151.094;2023-03-17T08:16:40;2.07;;;0.90;;
20792;SDS011;10556;-33.662;151.094;2023-03-17T08:21:41;2.10;;;0.53;;
20792;SDS011;10556;-33.662;151.094;2023-03-17T08:26:44;2.30;;;0.90;;
20792;SDS011;10556;-33.662;151.094;2023-03-17T08:31:47;1.07;;;0.50;;
20792;SDS011;10556;-33.662;151.094;2023-03-17T08:36:48;2.00;;;0.63;;
20792;SDS011;10556;-33.662;151.094;2023-03-17T08:41:51;0.90;;;0.40;;
20792;SDS011;10556;-33.662;151.094;2023-03-17T08:46:52;1.43;;;0.70;;
20792;SDS011;10556;-33.662;151.094;2023-03-17T08:51:54;1.60;;;0.70;;
20792;SDS011;10556;-33.662;151.094;2023-03-17T08:56:57;4.43;;;0.83;;
20792;SDS011;10556;-33.662;151.094;2023-03-17T09:01:58;2.27;;;0.70;;
20792;SDS011;10556;-33.662;151.094;2023-03-17T09:06:59;2.07;;;0.60;;
20792;SDS011;10556;-33.662;151.094;2023-03-17T09:12:03;2.30;;;0.60;;
20792;SDS011;10556;-33.662;151.094;2023-03-17T09:17:04;1.67;;;0.57;;
20792;SDS011;10556;-33.662;151.094;2023-03-17T09:22:05;3.37;;;0.60;;
20792;SDS011;10556;-33.662;151.094;2023-03-17T09:27:09;1.47;;;0.50;;
20792;SDS011;10556;-33.662;151.094;2023-03-17T09:32:10;5.13;;;0.90;;
20792;SDS011;10556;-33.662;151.094;2023-03-17T09:37:11;3.53;;;0.90;;
20792;SDS011;10556;-33.662;151.094;2023-03-17T09:42:21;2.43;;;0.80;;
20792;SDS011;10556;-33.662;151.094;2023-03-17T09:52:40;5.40;;;1.07;;
20792;SDS011;10556;-33.662;151.094;2023-03-17T09:57:43;6.00;;;1.03;;
20792;SDS011;10556;-33.662;151.094;2023-03-17T10:02:45;2.83;;;0.90;;
20792;SDS011;10556;-33.662;151.094;2023-03-17T10:07:48;5.83;;;1.13;;
20792;SDS011;10556;-33.662;151.094;2023-03-17T10:12:53;12.90;;;1.50;;
20792;SDS011;10556;-33.662;151.094;2023-03-17T10:17:56;4.30;;;1.30;;
20792;SDS011;10556;-33.662;151.094;2023-03-17T10:22:59;9.17;;;1.80;;
20792;SDS011;10556;-33.662;151.094;2023-03-17T10:28:04;10.60;;;1.67;;
20792;SDS011;10556;-33.662;151.094;2023-03-17T10:33:06;3.70;;;1.50;;
20792;SDS011;10556;-33.662;151.094;2023-03-17T10:38:13;9.67;;;1.93;;
20792;SDS011;10556;-33.662;151.094;2023-03-17T10:43:20;2.90;;;1.37;;
20792;SDS011;10556;-33.662;151.094;2023-03-17T10:48:21;6.53;;;1.40;;
20792;SDS011;10556;-33.662;151.094;2023-03-17T10:53:23;9.40;;;1.83;;
20792;SDS011;10556;-33.662;151.094;2023-03-17T10:58:33;10.83;;;2.17;;
20792;SDS011;10556;-33.662;151.094;2023-03-17T11:03:36;6.07;;;1.70;;
20792;SDS011;10556;-33.662;151.094;2023-03-17T11:08:38;4.33;;;1.37;;
20792;SDS011;10556;-33.662;151.094;2023-03-17T11:13:42;10.00;;;1.90;;
20792;SDS011;10556;-33.662;151.094;2023-03-17T11:18:43;5.37;;;1.23;;
20792;SDS011;10556;-33.662;151.094;2023-03-17T11:23:46;4.10;;;1.50;;
20792;SDS011;10556;-33.662;151.094;2023-03-17T11:28:51;5.30;;;1.20;;
20792;SDS011;10556;-33.662;151.094;2023-03-17T11:33:56;7.83;;;1.80;;
20792;SDS011;10556;-33.662;151.094;2023-03-17T11:38:59;11.43;;;1.70;;
20792;SDS011;10556;-33.662;151.094;2023-03-17T11:49:20;6.73;;;1.90;;
20792;SDS011;10556;-33.662;151.094;2023-03-17T11:54:22;7.17;;;1.93;;
20792;SDS011;10556;-33.662;151.094;2023-03-17T11:59:28;3.53;;;1.73;;
20792;SDS011;10556;-33.662;151.094;2023-03-17T12:04:34;8.60;;;2.00;;
20792;SDS011;10556;-33.662;151.094;2023-03-17T12:09:37;12.77;;;1.80;;
20792;SDS011;10556;-33.662;151.094;2023-03-17T12:14:42;8.60;;;2.17;;
20792;SDS011;10556;-33.662;151.094;2023-03-17T12:19:49;3.10;;;1.23;;
20792;SDS011;10556;-33.662;151.094;2023-03-17T12:24:59;6.00;;;1.50;;
20792;SDS011;10556;-33.662;151.094;2023-03-17T12:30:04;6.43;;;2.30;;
20792;SDS011;10556;-33.662;151.094;2023-03-17T12:35:18;9.80;;;2.37;;
20792;SDS011;10556;-33.662;151.094;2023-03-17T12:40:22;9.67;;;2.00;;
20792;SDS011;10556;-33.662;151.094;2023-03-17T12:45:32;5.37;;;1.53;;
20792;SDS011;10556;-33.662;151.094;2023-03-17T12:50:44;10.27;;;2.03;;
20792;SDS011;10556;-33.662;151.094;2023-03-17T12:55:49;3.27;;;1.37;;
20792;SDS011;10556;-33.662;151.094;2023-03-17T13:00:54;4.43;;;1.60;;
20792;SDS011;10556;-33.662;151.094;2023-03-17T13:05:59;5.57;;;2.07;;
20792;SDS011;10556;-33.662;151.094;2023-03-17T13:11:14;12.20;;;2.00;;
20792;SDS011;10556;-33.662;151.094;2023-03-17T13:16:25;8.20;;;1.57;;
20792;SDS011;10556;-33.662;151.094;2023-03-17T13:21:29;3.33;;;1.23;;
20792;SDS011;10556;-33.662;151.094;2023-03-17T13:26:49;4.83;;;1.80;;
20792;SDS011;10556;-33.662;151.094;2023-03-17T13:31:51;8.13;;;1.90;;
20792;SDS011;10556;-33.662;151.094;2023-03-17T13:36:59;10.67;;;2.10;;
20792;SDS011;10556;-33.662;151.094;2023-03-17T13:42:04;6.00;;;1.53;;
20792;SDS011;10556;-33.662;151.094;2023-03-17T13:47:13;8.80;;;2.27;;
20792;SDS011;10556;-33.662;151.094;2023-03-17T13:52:17;3.93;;;1.70;;
20792;SDS011;10556;-33.662;151.094;2023-03-17T13:57:23;5.37;;;1.50;;
20792;SDS011;10556;-33.662;151.094;2023-03-17T14:02:25;6.27;;;2.40;;
20792;SDS011;10556;-33.662;151.094;2023-03-17T14:07:37;7.17;;;2.13;;
20792;SDS011;10556;-33.662;151.094;2023-03-17T14:12:41;6.97;;;2.10;;
20792;SDS011;10556;-33.662;151.094;2023-03-17T14:17:44;6.87;;;2.13;;
20792;SDS011;10556;-33.662;151.094;2023-03-17T14:22:52;10.07;;;2.60;;
20792;SDS011;10556;-33.662;151.094;2023-03-17T14:27:54;6.23;;;1.93;;
20792;SDS011;10556;-33.662;151.094;2023-03-17T14:32:58;7.03;;;1.90;;
20792;SDS011;10556;-33.662;151.094;2023-03-17T14:38:02;9.23;;;2.57;;
20792;SDS011;10556;-33.662;151.094;2023-03-17T14:43:03;5.87;;;1.47;;
20792;SDS011;10556;-33.662;151.094;2023-03-17T14:48:04;2.30;;;1.20;;
20792;SDS011;10556;-33.662;151.094;2023-03-17T14:53:09;5.60;;;1.70;;
20792;SDS011;10556;-33.662;151.094;2023-03-17T14:58:16;5.67;;;1.50;;
20792;SDS011;10556;-33.662;151.094;2023-03-17T15:03:18;4.00;;;1.40;;
20792;SDS011;10556;-33.662;151.094;2023-03-17T15:13:47;6.87;;;1.63;;
20792;SDS011;10556;-33.662;151.094;2023-03-17T15:18:49;3.93;;;1.30;;
20792;SDS011;10556;-33.662;151.094;2023-03-17T15:23:53;6.93;;;1.50;;
20792;SDS011;10556;-33.662;151.094;2023-03-17T15:28:56;5.60;;;1.40;;
20792;SDS011;10556;-33.662;151.094;2023-03-17T15:33:57;4.63;;;1.63;;
20792;SDS011;10556;-33.662;151.094;2023-03-17T15:38:58;5.60;;;1.60;;
20792;SDS011;10556;-33.662;151.094;2023-03-17T15:44:02;6.33;;;1.80;;
20792;SDS011;10556;-33.662;151.094;2023-03-17T15:49:06;3.13;;;1.30;;
20792;SDS011;10556;-33.662;151.094;2023-03-17T15:54:11;4.03;;;1.67;;
20792;SDS011;10556;-33.662;151.094;2023-03-17T15:59:15;3.63;;;1.60;;
20792;SDS011;10556;-33.662;151.094;2023-03-17T16:04:16;4.93;;;1.60;;
20792;SDS011;10556;-33.662;151.094;2023-03-17T16:09:17;2.97;;;1.43;;
20792;SDS011;10556;-33.662;151.094;2023-03-17T16:14:21;8.17;;;1.73;;
20792;SDS011;10556;-33.662;151.094;2023-03-17T16:19:22;4.30;;;1.50;;
20792;SDS011;10556;-33.662;151.094;2023-03-17T16:24:23;3.43;;;1.60;;
20792;SDS011;10556;-33.662;151.094;2023-03-17T16:29:28;6.37;;;1.47;;
20792;SDS011;10556;-33.662;151.094;2023-03-17T16:34:30;3.97;;;1.50;;
20792;SDS011;10556;-33.662;151.094;2023-03-17T16:39:31;5.60;;;1.60;;
20792;SDS011;10556;-33.662;151.094;2023-03-17T16:44:34;2.63;;;1.30;;
20792;SDS011;10556;-33.662;151.094;2023-03-17T16:49:36;4.67;;;1.17;;
20792;SDS011;10556;-33.662;151.094;2023-03-17T16:54:37;4.97;;;1.80;;
20792;SDS011;10556;-33.662;151.094;2023-03-17T16:59:40;5.90;;;1.40;;
20792;SDS011;10556;-33.662;151.094;2023-03-17T17:04:41;4.00;;;1.20;;
20792;SDS011;10556;-33.662;151.094;2023-03-17T17:09:43;3.63;;;1.50;;
20792;SDS011;10556;-33.662;151.094;2023-03-17T17:14:46;5.80;;;1.70;;
20792;SDS011;10556;-33.662;151.094;2023-03-17T17:19:47;4.57;;;1.10;;
20792;SDS011;10556;-33.662;151.094;2023-03-17T17:24:48;3.83;;;1.13;;
20792;SDS011;10556;-33.662;151.094;2023-03-17T17:29:51;4.10;;;1.50;;
20792;SDS011;10556;-33.662;151.094;2023-03-17T17:34:53;2.77;;;1.43;;
20792;SDS011;10556;-33.662;151.094;2023-03-17T17:39:54;3.57;;;1.47;;
20792;SDS011;10556;-33.662;151.094;2023-03-17T17:44:57;3.83;;;1.40;;
20792;SDS011;10556;-33.662;151.094;2023-03-17T17:49:58;2.40;;;1.40;;
20792;SDS011;10556;-33.662;151.094;2023-03-17T17:54:59;2.90;;;1.40;;
20792;SDS011;10556;-33.662;151.094;2023-03-17T18:00:03;5.40;;;1.50;;
20792;SDS011;10556;-33.662;151.094;2023-03-17T18:05:04;3.20;;;1.33;;
20792;SDS011;10556;-33.662;151.094;2023-03-17T18:10:06;5.73;;;1.63;;
20792;SDS011;10556;-33.662;151.094;2023-03-17T18:15:10;3.77;;;1.80;;
20792;SDS011;10556;-33.662;151.094;2023-03-17T18:20:12;5.03;;;1.70;;
20792;SDS011;10556;-33.662;151.094;2023-03-17T18:25:14;3.73;;;1.40;;
20792;SDS011;10556;-33.662;151.094;2023-03-17T18:30:20;5.43;;;1.63;;
20792;SDS011;10556;-33.662;151.094;2023-03-17T18:35:22;6.67;;;1.87;;
20792;SDS011;10556;-33.662;151.094;2023-03-17T18:40:24;4.70;;;1.67;;
20792;SDS011;10556;-33.662;151.094;2023-03-17T18:45:27;1.83;;;1.20;;
20792;SDS011;10556;-33.662;151.094;2023-03-17T18:50:28;3.33;;;1.23;;
20792;SDS011;10556;-33.662;151.094;2023-03-17T18:55:30;6.23;;;1.90;;
20792;SDS011;10556;-33.662;151.094;2023-03-17T19:00:33;4.00;;;1.77;;
20792;SDS011;10556;-33.662;151.094;2023-03-17T19:05:34;4.40;;;1.57;;
20792;SDS011;10556;-33.662;151.094;2023-03-17T19:10:36;3.53;;;1.57;;
20792;SDS011;10556;-33.662;151.094;2023-03-17T19:15:39;2.37;;;1.10;;
20792;SDS011;10556;-33.662;151.094;2023-03-17T19:20:41;3.33;;;1.57;;
20792;SDS011;10556;-33.662;151.094;2023-03-17T19:25:42;6.17;;;1.73;;
20792;SDS011;10556;-33.662;151.094;2023-03-17T19:30:45;4.50;;;1.83;;
20792;SDS011;10556;-33.662;151.094;2023-03-17T19:35:50;3.40;;;1.40;;
20792;SDS011;10556;-33.662;151.094;2023-03-17T19:40:53;3.03;;;1.37;;
20792;SDS011;10556;-33.662;151.094;2023-03-17T19:45:56;3.03;;;1.30;;
20792;SDS011;10556;-33.662;151.094;2023-03-17T19:50:57;7.03;;;1.87;;
20792;SDS011;10556;-33.662;151.094;2023-03-17T19:55:58;2.43;;;1.50;;
20792;SDS011;10556;-33.662;151.094;2023-03-17T20:01:01;3.83;;;2.13;;
20792;SDS011;10556;-33.662;151.094;2023-03-17T20:06:03;4.40;;;2.80;;
20792;SDS011;10556;-33.662;151.094;2023-03-17T20:11:04;4.27;;;2.40;;
20792;SDS011;10556;-33.662;151.094;2023-03-17T20:16:08;5.50;;;2.90;;
20792;SDS011;10556;-33.662;151.094;2023-03-17T20:21:11;3.57;;;2.30;;
20792;SDS011;10556;-33.662;151.094;2023-03-17T20:26:12;5.33;;;2.80;;
20792;SDS011;10556;-33.662;151.094;2023-03-17T20:31:15;7.40;;;3.23;;
20792;SDS011;10556;-33.662;151.094;2023-03-17T20:36:16;4.27;;;2.57;;
20792;SDS011;10556;-33.662;151.094;2023-03-17T20:41:18;5.47;;;3.20;;
20792;SDS011;10556;-33.662;151.094;2023-03-17T20:46:21;4.33;;;2.90;;
20792;SDS011;10556;-33.662;151.094;2023-03-17T20:51:23;7.07;;;3.70;;
20792;SDS011;10556;-33.662;151.094;2023-03-17T20:56:24;16.27;;;3.60;;
20792;SDS011;10556;-33.662;151.094;2023-03-17T21:01:27;6.60;;;2.70;;
20792;SDS011;10556;-33.662;151.094;2023-03-17T21:06:28;8.73;;;3.60;;
20792;SDS011;10556;-33.662;151.094;2023-03-17T21:11:29;4.03;;;2.57;;
20792;SDS011;10556;-33.662;151.094;2023-03-17T21:16:33;5.40;;;3.23;;
20792;SDS011;10556;-33.662;151.094;2023-03-17T21:21:34;3.10;;;2.30;;
20792;SDS011;10556;-33.662;151.094;2023-03-17T21:26:35;5.17;;;2.23;;
20792;SDS011;10556;-33.662;151.094;2023-03-17T21:31:39;4.63;;;2.80;;
20792;SDS011;10556;-33.662;151.094;2023-03-17T21:36:40;6.67;;;3.53;;
20792;SDS011;10556;-33.662;151.094;2023-03-17T21:41:41;6.70;;;3.80;;
20792;SDS011;10556;-33.662;151.094;2023-03-17T21:46:44;9.07;;;4.93;;
20792;SDS011;10556;-33.662;151.094;2023-03-17T21:51:46;6.87;;;4.13;;
20792;SDS011;10556;-33.662;151.094;2023-03-17T21:56:47;9.40;;;4.83;;
20792;SDS011;10556;-33.662;151.094;2023-03-17T22:01:51;5.00;;;4.50;;
20792;SDS011;10556;-33.662;151.094;2023-03-17T22:06:52;6.47;;;4.20;;
20792;SDS011;10556;-33.662;151.094;2023-03-17T22:11:53;8.60;;;5.80;;
20792;SDS011;10556;-33.662;151.094;2023-03-17T22:16:56;9.37;;;6.67;;
20792;SDS011;10556;-33.662;151.094;2023-03-17T22:21:57;8.80;;;6.83;;
20792;SDS011;10556;-33.662;151.094;2023-03-17T22:26:58;10.20;;;7.30;;
20792;SDS011;10556;-33.662;151.094;2023-03-17T22:32:02;9.27;;;7.23;;
20792;SDS011;10556;-33.662;151.094;2023-03-17T22:37:03;8.53;;;7.63;;
20792;SDS011;10556;-33.662;151.094;2023-03-17T22:42:04;12.43;;;7.63;;
20792;SDS011;10556;-33.662;151.094;2023-03-17T22:47:08;11.83;;;7.87;;
20792;SDS011;10556;-33.662;151.094;2023-03-17T22:52:09;7.97;;;7.17;;
20792;SDS011;10556;-33.662;151.094;2023-03-17T22:57:10;11.53;;;7.97;;
20792;SDS011;10556;-33.662;151.094;2023-03-17T23:02:13;7.87;;;6.90;;
20792;SDS011;10556;-33.662;151.094;2023-03-17T23:07:14;16.63;;;7.30;;
20792;SDS011;10556;-33.662;151.094;2023-03-17T23:12:16;7.87;;;6.60;;
20792;SDS011;10556;-33.662;151.094;2023-03-17T23:17:19;10.73;;;7.17;;
20792;SDS011;10556;-33.662;151.094;2023-03-17T23:22:20;9.30;;;6.03;;
20792;SDS011;10556;-33.662;151.094;2023-03-17T23:27:21;9.70;;;6.27;;
20792;SDS011;10556;-33.662;151.094;2023-03-17T23:32:24;8.50;;;6.30;;
20792;SDS011;10556;-33.662;151.094;2023-03-17T23:37:26;6.10;;;5.50;;
20792;SDS011;10556;-33.662;151.094;2023-03-17T23:42:27;6.33;;;5.17;;
20792;SDS011;10556;-33.662;151.094;2023-03-17T23:47:30;6.97;;;5.50;;
20792;SDS011;10556;-33.662;151.094;2023-03-17T23:52:31;7.50;;;6.13;;
20792;SDS011;10556;-33.662;151.094;2023-03-17T23:57:33;9.90;;;5.93;;
